UKKK

Kiev Zhuliany International Airport

Kiev, Ukraine
TAF UKKK 151102Z 1512/1612 23005G10MPS 9999 SCT030 TX33/1513Z TN16/1603Z TEMPO 1512/1520 VRB10G18MPS 1000 TSRAGR SQ BKN007 BKN020CB BECMG 1520/1521 33003G08MPS TEMPO 1521/1606 2000 BR BKN007
Issued Valid From Valid To
Aug-15 @ 11:02 UTC
(2 hours ago)
Aug-15 @ 12:00 UTC
(41 minutes ago)
Aug-16 @ 12:00 UTC
(in 23 hours)
Aug-15 @ 12:00 to Aug-15 @ 20:00
TAF UKKK 151102Z 1512/1612 23005G10MPS 9999 SCT030 TX33/1513Z TN16/1603Z
Wind Visibility Clouds
230° at 10 knots
 Gusting to 19 knots
10,000+ meters
  • Scattered at 3,000' AGL
Temporary Aug-15 @ 12:00 to Aug-15 @ 20:00
TEMPO 1512/1520 VRB10G18MPS 1000 TSRAGR SQ BKN007 BKN020CB
Wind Visibility Clouds Conditions
Variable at 19 knots
 Gusting to 35 knots
998 meters
  • Broken at 700' AGL
  • Broken at 2,000' AGL
  • Thunderstorm
  • Rain
  • Thunderstorm
  • Hail
  • Squalls
Becoming Aug-15 @ 20:00 to Aug-16 @ 12:00
BECMG 1520/1521 33003G08MPS
Wind Visibility Clouds
330° at 6 knots
 Gusting to 16 knots
10,000+ meters
  • Scattered at 3,000' AGL
Temporary Aug-15 @ 21:00 to Aug-16 @ 06:00
TEMPO 1521/1606 2000 BR BKN007
Visibility Clouds Conditions
1,996 meters
  • Broken at 700' AGL
  • Mist
TAF UKKK 151102Z 1512/1612 23005G10MPS 9999 SCT030 TX33/1513Z TN16/1603Z TEMPO 1512/1520 VRB10G18MPS 1000 TSRAGR SQ BKN007 BKN020CB BECMG 1520/1521 33003G08MPS TEMPO 1521/1606 2000 BR BKN007
Issued Aug-15 @ 11:02 UTC
(2 hours ago)
Valid From Aug-15 @ 12:00 UTC
(41 minutes ago)
Valid To Aug-16 @ 12:00 UTC
(in 23 hours)
Aug-15 @ 12:00 - Aug-15 @ 20:00
Wind Visibility
230° at 10 knots
 Gusting to 19 knots
10,000+ meters
Clouds
  • Scattered at 3,000' AGL
Temporary Aug-15 @ 12:00 - Aug-15 @ 20:00
Wind Visibility
Variable at 19 knots
 Gusting to 35 knots
998 meters
Clouds
  • Broken at 700' AGL
  • Broken at 2,000' AGL
Conditions
  • Thunderstorm
  • Rain
  • Thunderstorm
  • Hail
  • Squalls
Becoming Aug-15 @ 20:00 - Aug-16 @ 12:00
Wind Visibility
330° at 6 knots
 Gusting to 16 knots
10,000+ meters
Clouds
  • Scattered at 3,000' AGL
Temporary Aug-15 @ 21:00 - Aug-16 @ 06:00
Clouds
  • Broken at 700' AGL
Conditions
  • Mist